createdAt,value
2022-10-28T00:02:25.108Z,4.56
2022-10-28T00:04:58.610Z,4.59
2022-10-28T00:07:31.748Z,4.59
2022-10-28T00:10:05.161Z,4.57
2022-10-28T00:12:39.373Z,4.50
2022-10-28T00:15:13.695Z,4.48
2022-10-28T00:17:46.786Z,4.49
2022-10-28T00:20:20.289Z,4.50
2022-10-28T00:22:53.786Z,4.52
2022-10-28T00:25:27.190Z,4.58
2022-10-28T00:28:00.587Z,4.63
2022-10-28T00:30:33.716Z,4.71
2022-10-28T00:33:07.157Z,4.76
2022-10-28T00:35:40.462Z,4.81
2022-10-28T00:38:13.573Z,4.85
2022-10-28T00:40:46.607Z,4.89
2022-10-28T00:43:34.711Z,4.87
2022-10-28T00:46:11.412Z,4.85
2022-10-28T00:48:48.018Z,4.84
2022-10-28T00:51:24.310Z,4.85
2022-10-28T00:53:58.541Z,4.86
2022-10-28T00:56:34.720Z,4.89
2022-10-28T00:59:10.856Z,4.91
2022-10-28T01:01:44.324Z,4.95
2022-10-28T01:04:17.928Z,4.95
2022-10-28T01:06:52.180Z,4.99
2022-10-28T01:12:01.971Z,5.08
2022-10-28T01:14:44.553Z,5.12
2022-10-28T01:17:27.906Z,5.11
2022-10-28T01:20:29.149Z,5.09
2022-10-28T01:23:05.304Z,5.12
2022-10-28T01:25:55.943Z,5.10
2022-10-28T01:29:01.574Z,5.09
2022-10-28T01:31:40.465Z,5.11
2022-10-28T01:34:18.124Z,5.10
2022-10-28T01:36:57.294Z,5.11
2022-10-28T01:39:36.179Z,5.08
2022-10-28T01:42:16.564Z,5.07
2022-10-28T01:44:52.795Z,5.07
2022-10-28T01:47:28.992Z,5.06
2022-10-28T01:50:05.456Z,5.06
2022-10-28T01:52:41.992Z,4.99
2022-10-28T01:55:18.706Z,4.99
2022-10-28T01:57:55.101Z,4.95
2022-10-28T02:00:29.180Z,4.98
2022-10-28T02:03:02.497Z,4.95
2022-10-28T02:05:43.502Z,4.97
2022-10-28T02:08:27.995Z,5.02
2022-10-28T02:11:12.348Z,5.03
2022-10-28T02:13:49.500Z,5.05
2022-10-28T02:16:26.497Z,5.00
2022-10-28T02:19:03.780Z,4.94
2022-10-28T02:21:41.203Z,4.90
2022-10-28T02:24:17.521Z,4.94
2022-10-28T02:26:55.366Z,4.97
2022-10-28T02:29:30.721Z,5.00
2022-10-28T02:32:06.698Z,5.09
2022-10-28T02:34:42.817Z,5.06
2022-10-28T02:37:18.904Z,5.04
2022-10-28T02:39:55.133Z,4.99
2022-10-28T02:42:32.025Z,4.98
2022-10-28T02:45:08.153Z,4.99
2022-10-28T02:47:44.369Z,5.04
2022-10-28T02:50:20.966Z,5.02
2022-10-28T02:52:57.069Z,5.01
2022-10-28T02:55:33.630Z,5.04
2022-10-28T02:58:08.318Z,5.02
2022-10-28T03:00:46.357Z,5.04
2022-10-28T03:03:20.061Z,5.04
2022-10-28T03:05:53.404Z,5.02
2022-10-28T03:08:26.658Z,5.00
2022-10-28T03:10:59.936Z,5.01
2022-10-28T03:13:33.196Z,5.00
2022-10-28T03:16:07.168Z,5.01
2022-10-28T03:18:40.563Z,5.02
2022-10-28T03:21:13.789Z,4.98
2022-10-28T03:23:47.143Z,4.96
2022-10-28T03:26:20.772Z,4.99
2022-10-28T03:28:54.329Z,5.00
2022-10-28T03:31:27.829Z,5.03
2022-10-28T03:34:01.140Z,5.04
2022-10-28T03:36:34.373Z,5.08
2022-10-28T03:39:07.632Z,5.13
2022-10-28T03:41:41.164Z,5.13
2022-10-28T03:44:14.527Z,5.10
2022-10-28T03:46:48.036Z,5.11
2022-10-28T03:49:21.187Z,5.17
2022-10-28T03:51:54.833Z,5.21
2022-10-28T03:54:28.336Z,5.22
2022-10-28T03:57:01.632Z,5.24
2022-10-28T03:59:35.129Z,5.29
2022-10-28T04:02:09.089Z,5.29
2022-10-28T04:04:42.458Z,5.27
2022-10-28T04:07:15.818Z,5.27
2022-10-28T04:09:50.766Z,5.29
2022-10-28T04:12:24.233Z,5.27
2022-10-28T04:14:57.700Z,5.28
2022-10-28T04:17:31.266Z,5.35
2022-10-28T04:20:04.863Z,5.34
2022-10-28T04:22:38.245Z,5.30
2022-10-28T04:25:12.195Z,5.28
2022-10-28T04:27:46.389Z,5.30
2022-10-28T04:30:20.198Z,5.28
2022-10-28T04:32:53.421Z,5.30
2022-10-28T04:35:27.542Z,5.32
2022-10-28T04:38:01.195Z,5.35
2022-10-28T04:40:34.549Z,5.39
2022-10-28T04:43:09.948Z,5.39
2022-10-28T04:45:43.201Z,5.40
2022-10-28T04:48:16.773Z,5.40
2022-10-28T04:50:51.125Z,5.40
2022-10-28T04:53:24.408Z,5.37
2022-10-28T04:56:00.639Z,5.38
2022-10-28T04:58:33.730Z,5.40
2022-10-28T05:01:10.548Z,5.38
2022-10-28T05:03:43.963Z,5.35
2022-10-28T05:06:17.007Z,5.34
2022-10-28T05:08:50.312Z,5.28
2022-10-28T05:11:23.495Z,5.26
2022-10-28T05:13:57.117Z,5.25
2022-10-28T05:16:30.619Z,5.27
2022-10-28T05:19:04.103Z,5.30
2022-10-28T05:21:37.385Z,5.30
2022-10-28T05:24:11.564Z,5.32
2022-10-28T05:26:44.913Z,5.29
2022-10-28T05:29:19.743Z,5.29
2022-10-28T05:31:53.231Z,5.26
2022-10-28T05:34:26.507Z,5.22
2022-10-28T05:36:59.758Z,5.21
2022-10-28T05:39:33.045Z,5.16
2022-10-28T05:42:06.852Z,5.16
2022-10-28T05:44:40.636Z,5.18
2022-10-28T05:47:14.029Z,5.18
2022-10-28T05:49:47.428Z,5.22
2022-10-28T05:52:20.862Z,5.26
2022-10-28T05:54:54.301Z,5.33
2022-10-28T05:57:27.511Z,5.39
2022-10-28T06:00:00.619Z,5.42
2022-10-28T06:02:33.975Z,5.41
2022-10-28T06:05:08.505Z,5.46
2022-10-28T06:07:42.445Z,5.48
2022-10-28T06:10:16.611Z,5.41
2022-10-28T06:12:48.739Z,5.50
2022-10-28T06:15:22.123Z,5.54
2022-10-28T06:17:55.537Z,5.59
2022-10-28T06:20:29.203Z,5.61
2022-10-28T06:23:02.921Z,5.70
2022-10-28T06:25:36.521Z,5.73
2022-10-28T06:28:10.482Z,5.79
2022-10-28T06:30:43.838Z,5.88
2022-10-28T06:33:17.806Z,5.97
2022-10-28T06:35:52.511Z,6.03
2022-10-28T06:38:26.010Z,6.02
2022-10-28T06:40:59.690Z,6.02
2022-10-28T06:43:33.245Z,6.05
2022-10-28T06:46:07.257Z,6.10
2022-10-28T06:48:42.248Z,6.18
2022-10-28T06:51:17.068Z,6.27
2022-10-28T06:53:52.721Z,6.34
2022-10-28T06:56:26.096Z,6.37
2022-10-28T06:58:59.514Z,6.45
2022-10-28T07:01:33.218Z,6.52
2022-10-28T07:04:07.855Z,6.56
2022-10-28T07:06:41.902Z,6.58
2022-10-28T07:09:16.255Z,6.57
2022-10-28T07:11:54.949Z,6.58
2022-10-28T07:14:25.959Z,6.60
2022-10-28T07:16:59.258Z,6.60
2022-10-28T07:19:32.570Z,6.63
2022-10-28T07:22:05.751Z,6.66
2022-10-28T07:24:39.291Z,6.71
2022-10-28T07:27:12.774Z,6.76
2022-10-28T07:29:46.068Z,6.70
2022-10-28T07:32:19.182Z,6.74
2022-10-28T07:34:52.673Z,6.87
2022-10-28T07:37:25.731Z,6.96
2022-10-28T07:39:58.986Z,6.99
2022-10-28T07:42:34.395Z,7.06
2022-10-28T07:45:09.198Z,7.19
2022-10-28T07:47:42.626Z,7.27
2022-10-28T07:50:16.053Z,7.26
2022-10-28T07:52:50.160Z,7.23
2022-10-28T07:55:26.947Z,7.28
2022-10-28T07:57:59.996Z,7.36
2022-10-28T08:00:34.424Z,7.43
2022-10-28T08:03:08.094Z,7.48
2022-10-28T08:05:41.656Z,7.51
2022-10-28T08:08:15.186Z,7.56
2022-10-28T08:10:48.399Z,7.64
2022-10-28T08:13:21.659Z,7.68
2022-10-28T08:15:58.148Z,7.70
2022-10-28T08:18:31.711Z,7.67
2022-10-28T08:21:06.318Z,7.65
2022-10-28T08:23:41.581Z,7.66
2022-10-28T08:26:15.432Z,7.70
2022-10-28T08:28:48.763Z,7.69
2022-10-28T08:31:21.840Z,7.62
2022-10-28T08:33:55.036Z,7.64
2022-10-28T08:36:28.738Z,7.79
2022-10-28T08:39:03.171Z,7.97
2022-10-28T08:41:41.466Z,8.09
2022-10-28T08:44:45.861Z,8.32
2022-10-28T08:47:28.415Z,9.05
2022-10-28T08:50:04.819Z,10.85
2022-10-28T08:52:42.112Z,11.73
2022-10-28T08:55:19.117Z,13.02
2022-10-28T08:57:55.901Z,14.28
2022-10-28T09:00:32.321Z,15.15
2022-10-28T09:03:18.214Z,16.54
2022-10-28T09:05:53.926Z,16.66
2022-10-28T09:08:29.193Z,15.79
2022-10-28T09:11:27.526Z,14.66
2022-10-28T09:14:11.875Z,13.66
2022-10-28T09:16:47.757Z,12.79
2022-10-28T09:19:32.886Z,12.33
2022-10-28T09:22:13.772Z,12.01
2022-10-28T09:24:50.576Z,12.22
2022-10-28T09:27:32.099Z,13.03
2022-10-28T09:30:11.259Z,14.72
2022-10-28T09:32:47.311Z,16.20
2022-10-28T09:35:23.545Z,17.16
2022-10-28T09:38:00.089Z,16.91
2022-10-28T09:40:35.204Z,15.79
2022-10-28T09:46:00.852Z,15.21
2022-10-28T09:48:37.772Z,14.72
2022-10-28T09:51:18.895Z,14.43
2022-10-28T09:53:55.494Z,14.12
2022-10-28T09:56:30.256Z,13.85
2022-10-28T09:59:05.850Z,13.66
2022-10-28T10:01:41.888Z,13.31
2022-10-28T10:04:22.789Z,12.72
2022-10-28T10:06:59.038Z,12.22
2022-10-28T10:12:16.395Z,11.69
2022-10-28T10:14:52.630Z,11.25
2022-10-28T10:17:29.053Z,11.06
2022-10-28T10:20:06.511Z,10.83
2022-10-28T10:22:42.051Z,10.67
2022-10-28T10:25:31.256Z,10.57
2022-10-28T10:28:06.808Z,10.51
2022-10-28T10:30:43.224Z,10.51
2022-10-28T10:33:19.907Z,10.58
2022-10-28T10:36:00.409Z,10.60
2022-10-28T10:38:36.291Z,10.54
2022-10-28T10:41:09.919Z,10.46
2022-10-28T10:43:43.364Z,10.52
2022-10-28T10:46:18.899Z,10.51
2022-10-28T10:48:56.586Z,10.46
2022-10-28T10:51:30.826Z,10.35
2022-10-28T10:54:04.752Z,10.24
2022-10-28T10:56:38.216Z,10.14
2022-10-28T10:59:20.024Z,10.09
2022-10-28T11:01:54.811Z,10.06
2022-10-28T11:04:30.284Z,9.99
2022-10-28T11:07:04.121Z,9.90
2022-10-28T11:09:40.327Z,9.91
2022-10-28T11:15:23.633Z,10.04
2022-10-28T11:18:02.340Z,9.82
2022-10-28T11:20:44.314Z,10.08
2022-10-28T11:23:34.682Z,10.11
2022-10-28T11:26:10.458Z,10.09
2022-10-28T11:29:01.443Z,10.04
2022-10-28T11:32:02.403Z,9.95
2022-10-28T11:34:51.485Z,9.90
2022-10-28T11:37:29.292Z,9.82
2022-10-28T11:40:07.937Z,9.74
2022-10-28T11:42:45.215Z,9.76
2022-10-28T11:45:21.716Z,9.73
2022-10-28T11:48:03.573Z,9.72
2022-10-28T11:50:47.584Z,9.71
2022-10-28T11:53:44.770Z,9.71
2022-10-28T11:56:29.668Z,9.68
2022-10-28T11:59:10.982Z,9.63
2022-10-28T12:01:49.134Z,9.55
2022-10-28T12:04:37.147Z,9.53
2022-10-28T12:07:16.678Z,9.50
2022-10-28T12:10:01.239Z,9.48
2022-10-28T12:12:41.153Z,9.36
2022-10-28T12:15:18.851Z,9.36
2022-10-28T12:17:55.219Z,9.34
2022-10-28T12:20:32.930Z,9.32
2022-10-28T12:23:09.283Z,9.29
2022-10-28T12:25:45.176Z,9.32
2022-10-28T12:28:21.869Z,9.30
2022-10-28T12:30:58.509Z,9.32
2022-10-28T12:33:34.866Z,9.33
2022-10-28T12:36:23.736Z,9.31
2022-10-28T12:39:01.152Z,9.29
2022-10-28T12:41:46.945Z,9.28
2022-10-28T12:44:23.177Z,9.25
2022-10-28T12:49:48.822Z,9.36
2022-10-28T12:52:28.400Z,9.26
2022-10-28T12:55:05.233Z,9.27
2022-10-28T12:57:40.199Z,9.33
2022-10-28T13:00:20.221Z,9.41
2022-10-28T13:02:57.613Z,9.42
2022-10-28T13:05:35.686Z,9.43
2022-10-28T13:11:41.517Z,9.49
2022-10-28T13:14:22.403Z,9.48
2022-10-28T13:17:08.745Z,9.46
2022-10-28T13:19:59.336Z,9.48
2022-10-28T13:23:11.271Z,9.50
2022-10-28T13:25:54.225Z,9.48
2022-10-28T13:28:31.130Z,9.50
2022-10-28T13:31:06.180Z,9.50
2022-10-28T13:33:40.800Z,9.48
2022-10-28T13:36:20.059Z,9.48
2022-10-28T13:38:57.066Z,9.49
2022-10-28T13:41:43.399Z,9.46
2022-10-28T13:44:40.332Z,9.49
2022-10-28T13:47:33.404Z,9.48
2022-10-28T13:50:25.818Z,9.45
2022-10-28T13:53:47.420Z,9.45
2022-10-28T13:56:36.541Z,9.45
2022-10-28T13:59:20.103Z,9.40
2022-10-28T14:02:33.381Z,9.32
2022-10-28T14:04:43.968Z,9.28
2022-10-28T14:07:28.010Z,9.26
2022-10-28T14:10:22.163Z,9.24
2022-10-28T14:12:59.080Z,9.23
2022-10-28T14:15:35.184Z,9.25
2022-10-28T14:18:37.586Z,9.26
2022-10-28T14:20:57.936Z,9.28
2022-10-28T14:24:11.510Z,9.30
2022-10-28T14:27:33.471Z,9.33
2022-10-28T14:30:24.110Z,9.28
2022-10-28T14:33:22.027Z,9.26
2022-10-28T14:36:04.264Z,9.24
2022-10-28T14:39:01.812Z,9.23
2022-10-28T14:42:20.450Z,9.25
2022-10-28T14:47:57.931Z,9.36
2022-10-28T14:50:34.953Z,9.23
2022-10-28T14:53:10.269Z,9.19
2022-10-28T14:55:46.221Z,9.13
2022-10-28T14:58:25.757Z,9.09
2022-10-28T15:01:05.624Z,9.09
2022-10-28T15:03:39.749Z,9.02
2022-10-28T15:06:39.504Z,8.99
2022-10-28T15:09:33.140Z,9.00
2022-10-28T15:12:09.783Z,8.96
2022-10-28T15:14:44.940Z,8.95
2022-10-28T15:17:20.695Z,8.93
2022-10-28T15:19:55.767Z,8.93
2022-10-28T15:22:30.944Z,8.96
2022-10-28T15:25:06.032Z,8.96
2022-10-28T15:27:41.292Z,8.91
2022-10-28T15:30:20.910Z,8.86
2022-10-28T15:32:55.001Z,8.79
2022-10-28T15:35:39.805Z,8.74
2022-10-28T15:38:36.327Z,8.70
2022-10-28T15:41:46.398Z,8.70
2022-10-28T15:44:37.521Z,8.67
2022-10-28T15:47:27.729Z,8.67
2022-10-28T15:50:15.364Z,8.68
2022-10-28T15:52:51.168Z,8.70
2022-10-28T15:55:47.797Z,8.78
2022-10-28T15:58:29.551Z,8.75
2022-10-28T16:01:06.502Z,8.75
2022-10-28T16:03:48.671Z,8.79
2022-10-28T16:06:29.487Z,8.82
2022-10-28T16:09:10.322Z,8.84
2022-10-28T16:11:48.798Z,8.87
2022-10-28T16:14:37.861Z,8.87
2022-10-28T16:17:19.054Z,8.89
2022-10-28T16:19:58.114Z,8.88
2022-10-28T16:22:35.512Z,8.90
2022-10-28T16:25:14.908Z,8.89
2022-10-28T16:27:48.505Z,8.89
2022-10-28T16:32:56.462Z,8.90
2022-10-28T16:35:30.272Z,8.89
2022-10-28T16:38:06.734Z,8.92
2022-10-28T16:40:51.585Z,8.90
2022-10-28T16:43:21.790Z,8.93
2022-10-28T16:45:58.452Z,8.91
2022-10-28T16:48:39.631Z,8.95
2022-10-28T16:51:18.087Z,8.95
2022-10-28T16:53:52.610Z,8.96
2022-10-28T16:56:29.077Z,8.97
2022-10-28T16:59:03.099Z,8.92
2022-10-28T17:01:39.198Z,8.94
2022-10-28T17:04:15.549Z,8.92
2022-10-28T17:06:51.823Z,8.96
2022-10-28T17:09:28.437Z,8.95
2022-10-28T17:12:02.658Z,8.96
2022-10-28T17:14:38.395Z,8.95
2022-10-28T17:17:15.879Z,8.98
2022-10-28T17:19:50.088Z,8.99
2022-10-28T17:22:30.476Z,9.00
2022-10-28T17:25:09.619Z,8.97
2022-10-28T17:27:48.848Z,8.94
2022-10-28T17:30:26.569Z,8.95
2022-10-28T17:33:00.828Z,8.98
2022-10-28T17:35:36.906Z,8.98
2022-10-28T17:38:17.513Z,8.95
2022-10-28T17:40:57.344Z,8.92
2022-10-28T17:43:32.499Z,8.93
2022-10-28T17:46:11.096Z,8.95
2022-10-28T17:48:49.409Z,8.96
2022-10-28T17:51:24.912Z,8.97
2022-10-28T17:53:59.775Z,9.00
2022-10-28T17:56:32.810Z,9.03
2022-10-28T17:59:07.544Z,9.04
2022-10-28T18:01:47.874Z,9.06
2022-10-28T18:04:25.276Z,9.05
2022-10-28T18:06:59.307Z,9.05
2022-10-28T18:09:34.298Z,9.08
2022-10-28T18:12:13.477Z,9.08
2022-10-28T18:14:51.579Z,9.10
2022-10-28T18:17:44.713Z,9.12
2022-10-28T18:20:18.539Z,9.15
2022-10-28T18:22:54.447Z,9.14
2022-10-28T18:25:29.588Z,9.14
2022-10-28T18:28:08.217Z,9.14
2022-10-28T18:30:46.346Z,9.17
2022-10-28T18:33:19.554Z,9.17
2022-10-28T18:35:52.811Z,9.17
2022-10-28T18:38:26.622Z,9.16
2022-10-28T18:41:00.012Z,9.18
2022-10-28T18:43:33.337Z,9.14
2022-10-28T18:46:07.062Z,9.20
2022-10-28T18:48:41.164Z,9.21
2022-10-28T18:51:16.796Z,9.21
2022-10-28T18:53:51.368Z,9.20
2022-10-28T18:56:26.319Z,9.20
2022-10-28T18:59:00.228Z,9.21
2022-10-28T19:01:34.540Z,9.19
2022-10-28T19:04:08.269Z,9.19
2022-10-28T19:06:42.483Z,9.18
2022-10-28T19:09:16.349Z,9.19
2022-10-28T19:11:49.801Z,9.18
2022-10-28T19:14:23.639Z,9.20
2022-10-28T19:16:57.240Z,9.21
2022-10-28T19:19:33.215Z,9.21
2022-10-28T19:22:05.850Z,9.18
2022-10-28T19:24:39.542Z,9.18
2022-10-28T19:27:13.305Z,9.18
2022-10-28T19:29:47.771Z,9.16
2022-10-28T19:32:20.930Z,9.18
2022-10-28T19:34:54.328Z,9.20
2022-10-28T19:37:28.084Z,9.20
2022-10-28T19:40:01.505Z,9.22
2022-10-28T19:42:34.861Z,9.21
2022-10-28T19:45:11.802Z,9.21
2022-10-28T19:47:45.216Z,9.23
2022-10-28T19:50:19.275Z,9.23
2022-10-28T19:52:53.805Z,9.22
2022-10-28T19:55:27.336Z,9.22
2022-10-28T19:58:00.864Z,9.23
2022-10-28T20:00:34.472Z,9.21
2022-10-28T20:03:07.916Z,9.23
2022-10-28T20:05:42.018Z,9.25
2022-10-28T20:08:17.131Z,9.27
2022-10-28T20:11:00.861Z,9.24
2022-10-28T20:13:34.724Z,9.26
2022-10-28T20:16:11.844Z,9.26
2022-10-28T20:18:45.303Z,9.28
2022-10-28T20:21:20.318Z,9.29
2022-10-28T20:23:55.608Z,9.31
2022-10-28T20:26:31.021Z,9.29
2022-10-28T20:31:46.269Z,9.41
2022-10-28T20:34:19.879Z,9.31
2022-10-28T20:36:53.521Z,9.32
2022-10-28T20:39:27.638Z,9.36
2022-10-28T20:42:00.987Z,9.39
2022-10-28T20:44:34.391Z,9.37
2022-10-28T20:47:08.051Z,9.38
2022-10-28T20:49:42.836Z,9.36
2022-10-28T20:52:16.784Z,9.38
2022-10-28T20:54:50.221Z,9.36
2022-10-28T20:57:23.788Z,9.39
2022-10-28T20:59:57.197Z,9.39
2022-10-28T21:02:30.609Z,9.37
2022-10-28T21:05:04.132Z,9.36
2022-10-28T21:07:37.722Z,9.37
2022-10-28T21:10:12.751Z,9.38
2022-10-28T21:12:46.264Z,9.38
2022-10-28T21:15:20.065Z,9.38
2022-10-28T21:17:53.772Z,9.38
2022-10-28T21:20:27.476Z,9.40
2022-10-28T21:23:01.421Z,9.44
2022-10-28T21:25:35.193Z,9.45
2022-10-28T21:28:09.009Z,9.44
2022-10-28T21:30:42.519Z,9.45
2022-10-28T21:33:17.239Z,9.45
2022-10-28T21:35:58.611Z,9.49
2022-10-28T21:38:32.097Z,9.47
2022-10-28T21:41:09.663Z,9.47
2022-10-28T21:43:44.216Z,9.46
2022-10-28T21:46:18.367Z,9.47
2022-10-28T21:48:52.146Z,9.46
2022-10-28T21:51:25.638Z,9.47
2022-10-28T21:53:58.797Z,9.47
2022-10-28T21:56:32.227Z,9.48
2022-10-28T21:59:05.551Z,9.49
2022-10-28T22:01:39.194Z,9.49
2022-10-28T22:04:12.302Z,9.51
2022-10-28T22:09:19.248Z,9.54
2022-10-28T22:11:52.661Z,9.54
2022-10-28T22:14:26.096Z,9.54
2022-10-28T22:16:59.484Z,9.55
2022-10-28T22:19:32.916Z,9.54
2022-10-28T22:22:06.766Z,9.54
2022-10-28T22:24:40.103Z,9.53
2022-10-28T22:27:14.211Z,9.53
2022-10-28T22:29:47.733Z,9.56
2022-10-28T22:32:21.168Z,9.56
2022-10-28T22:34:54.576Z,9.57
2022-10-28T22:37:27.926Z,9.57
2022-10-28T22:40:01.215Z,9.57
2022-10-28T22:42:34.641Z,9.58
2022-10-28T22:45:09.896Z,9.62
2022-10-28T22:47:43.432Z,9.59
2022-10-28T22:50:16.713Z,9.62
2022-10-28T22:52:49.983Z,9.59
2022-10-28T22:55:23.308Z,9.58
2022-10-28T22:57:58.034Z,9.58
2022-10-28T23:00:31.394Z,9.58
2022-10-28T23:03:04.967Z,9.59
2022-10-28T23:05:38.673Z,9.59
2022-10-28T23:08:14.876Z,9.58
2022-10-28T23:10:48.148Z,9.58
2022-10-28T23:13:21.188Z,9.59
2022-10-28T23:15:54.516Z,9.57
2022-10-28T23:18:29.845Z,9.57
2022-10-28T23:21:08.897Z,9.57
2022-10-28T23:23:43.378Z,9.57
2022-10-28T23:26:17.257Z,9.56
2022-10-28T23:28:52.973Z,9.57
2022-10-28T23:31:27.721Z,9.57
2022-10-28T23:34:01.306Z,9.57
2022-10-28T23:36:34.996Z,9.59
2022-10-28T23:39:08.374Z,9.63
2022-10-28T23:41:41.721Z,9.64
2022-10-28T23:44:15.232Z,9.64
2022-10-28T23:46:48.619Z,9.66
2022-10-28T23:49:21.724Z,9.67
2022-10-28T23:51:54.920Z,9.68
2022-10-28T23:54:28.337Z,9.68
2022-10-28T23:57:01.704Z,9.68
2022-10-28T23:59:35.014Z,9.67
